sensor_id;sensor_type;location;lat;lon;timestamp;temperature;humidity
10010;DHT22;5044;48.652;9.250;2024-01-15T07:10:55;-1.60;99.90
10010;DHT22;5044;48.652;9.250;2024-01-15T10:16:46;0.30;92.70
10010;DHT22;5044;48.652;9.250;2024-01-15T11:00:20;0.40;94.20
10010;DHT22;5044;48.652;9.250;2024-01-15T11:03:04;1.30;94.40
10010;DHT22;5044;48.652;9.250;2024-01-15T11:06:19;0.50;94.20
10010;DHT22;5044;48.652;9.250;2024-01-15T11:09:23;0.50;94.20
10010;DHT22;5044;48.652;9.250;2024-01-15T11:12:18;0.50;94.70
10010;DHT22;5044;48.652;9.250;2024-01-15T11:30:02;0.70;98.40
10010;DHT22;5044;48.652;9.250;2024-01-15T11:40:18;0.80;97.20
10010;DHT22;5044;48.652;9.250;2024-01-15T12:37:48;0.20;99.90
10010;DHT22;5044;48.652;9.250;2024-01-15T12:40:38;0.30;99.90
10010;DHT22;5044;48.652;9.250;2024-01-15T12:43:22;0.10;99.90
10010;DHT22;5044;48.652;9.250;2024-01-15T12:46:00;-0.10;99.90
10010;DHT22;5044;48.652;9.250;2024-01-15T12:48:28;-0.20;99.90
10010;DHT22;5044;48.652;9.250;2024-01-15T12:50:55;0.30;99.90
10010;DHT22;5044;48.652;9.250;2024-01-15T12:56:10;-0.50;99.90
10010;DHT22;5044;48.652;9.250;2024-01-15T12:59:03;-0.40;99.90
10010;DHT22;5044;48.652;9.250;2024-01-15T13:01:52;0.00;99.90
10010;DHT22;5044;48.652;9.250;2024-01-15T13:04:37;-0.10;99.90
10010;DHT22;5044;48.652;9.250;2024-01-15T13:07:14;-0.10;99.90
10010;DHT22;5044;48.652;9.250;2024-01-15T13:09:43;-0.60;99.90
10010;DHT22;5044;48.652;9.250;2024-01-15T13:12:10;0.00;99.90
10010;DHT22;5044;48.652;9.250;2024-01-15T13:14:38;-0.50;99.90
10010;DHT22;5044;48.652;9.250;2024-01-15T13:17:07;-0.10;99.90
10010;DHT22;5044;48.652;9.250;2024-01-15T13:19:37;-0.10;99.90
10010;DHT22;5044;48.652;9.250;2024-01-15T13:22:04;0.10;99.90
10010;DHT22;5044;48.652;9.250;2024-01-15T13:24:32;-0.20;99.90
10010;DHT22;5044;48.652;9.250;2024-01-15T13:27:03;-0.10;99.90
10010;DHT22;5044;48.652;9.250;2024-01-15T13:29:32;-0.10;99.90
10010;DHT22;5044;48.652;9.250;2024-01-15T13:32:01;-0.10;99.90
10010;DHT22;5044;48.652;9.250;2024-01-15T13:34:30;-0.20;99.90
10010;DHT22;5044;48.652;9.250;2024-01-15T13:36:58;-0.20;99.90
10010;DHT22;5044;48.652;9.250;2024-01-15T13:39:25;-0.20;99.90
10010;DHT22;5044;48.652;9.250;2024-01-15T13:41:52;-0.60;99.90
10010;DHT22;5044;48.652;9.250;2024-01-15T13:44:23;-0.20;99.90
10010;DHT22;5044;48.652;9.250;2024-01-15T13:46:51;-0.40;99.90
10010;DHT22;5044;48.652;9.250;2024-01-15T13:49:18;-0.20;99.90
10010;DHT22;5044;48.652;9.250;2024-01-15T13:51:46;0.00;99.90
10010;DHT22;5044;48.652;9.250;2024-01-15T13:54:16;-0.30;99.90
10010;DHT22;5044;48.652;9.250;2024-01-15T13:56:47;-0.30;99.90
10010;DHT22;5044;48.652;9.250;2024-01-15T13:59:19;-0.30;99.90
10010;DHT22;5044;48.652;9.250;2024-01-15T14:01:48;0.20;99.90
10010;DHT22;5044;48.652;9.250;2024-01-15T14:04:16;-0.40;99.90
10010;DHT22;5044;48.652;9.250;2024-01-15T14:06:43;-0.40;99.90
10010;DHT22;5044;48.652;9.250;2024-01-15T14:09:38;-0.40;99.90
10010;DHT22;5044;48.652;9.250;2024-01-15T14:13:00;-0.10;99.90
10010;DHT22;5044;48.652;9.250;2024-01-15T14:15:49;-0.70;99.90
10010;DHT22;5044;48.652;9.250;2024-01-15T14:18:57;-0.40;99.90
10010;DHT22;5044;48.652;9.250;2024-01-15T14:21:57;-0.70;99.90
10010;DHT22;5044;48.652;9.250;2024-01-15T14:25:05;-0.20;99.90
10010;DHT22;5044;48.652;9.250;2024-01-15T15:50:12;-0.80;99.90
10010;DHT22;5044;48.652;9.250;2024-01-15T15:53:00;-0.90;99.90
10010;DHT22;5044;48.652;9.250;2024-01-15T16:10:17;-1.00;99.90
10010;DHT22;5044;48.652;9.250;2024-01-15T16:12:45;-1.00;99.90
10010;DHT22;5044;48.652;9.250;2024-01-15T16:15:20;-1.00;99.90
10010;DHT22;5044;48.652;9.250;2024-01-15T16:17:47;-0.20;99.90
10010;DHT22;5044;48.652;9.250;2024-01-15T16:20:15;-0.40;99.90
10010;DHT22;5044;48.652;9.250;2024-01-15T16:22:42;-1.40;99.90
10010;DHT22;5044;48.652;9.250;2024-01-15T16:25:10;-1.00;99.90
10010;DHT22;5044;48.652;9.250;2024-01-15T16:27:38;-0.70;99.90
10010;DHT22;5044;48.652;9.250;2024-01-15T16:30:08;-1.10;99.90
10010;DHT22;5044;48.652;9.250;2024-01-15T16:32:35;-1.10;99.90
10010;DHT22;5044;48.652;9.250;2024-01-15T16:35:05;-0.60;99.90
10010;DHT22;5044;48.652;9.250;2024-01-15T16:37:32;-1.10;99.90
10010;DHT22;5044;48.652;9.250;2024-01-15T16:40:01;-1.10;99.90
10010;DHT22;5044;48.652;9.250;2024-01-15T16:42:28;-1.10;99.90
10010;DHT22;5044;48.652;9.250;2024-01-15T16:44:57;-1.10;99.90
10010;DHT22;5044;48.652;9.250;2024-01-15T16:47:24;-1.10;99.90
10010;DHT22;5044;48.652;9.250;2024-01-15T16:49:55;-1.60;99.90
10010;DHT22;5044;48.652;9.250;2024-01-15T16:52:27;-1.20;99.90
10010;DHT22;5044;48.652;9.250;2024-01-15T16:55:04;-1.00;99.90
10010;DHT22;5044;48.652;9.250;2024-01-15T18:30:51;-2.10;99.90
10010;DHT22;5044;48.652;9.250;2024-01-15T19:08:19;-2.40;99.90
10010;DHT22;5044;48.652;9.250;2024-01-15T19:11:34;-2.30;99.90
10010;DHT22;5044;48.652;9.250;2024-01-15T19:15:15;-2.30;99.90
10010;DHT22;5044;48.652;9.250;2024-01-15T19:21:47;-2.40;99.90
10010;DHT22;5044;48.652;9.250;2024-01-15T19:31:34;-2.20;99.90
10010;DHT22;5044;48.652;9.250;2024-01-15T19:34:36;-1.90;99.90
10010;DHT22;5044;48.652;9.250;2024-01-15T19:44:25;-2.20;99.90
10010;DHT22;5044;48.652;9.250;2024-01-15T19:50:37;-1.80;99.90
10010;DHT22;5044;48.652;9.250;2024-01-15T19:53:35;-2.00;99.90
10010;DHT22;5044;48.652;9.250;2024-01-15T19:56:28;-1.30;99.90
10010;DHT22;5044;48.652;9.250;2024-01-15T20:06:22;-1.90;99.90
10010;DHT22;5044;48.652;9.250;2024-01-15T20:08:50;-1.80;99.90
10010;DHT22;5044;48.652;9.250;2024-01-15T20:11:20;-1.70;99.90
10010;DHT22;5044;48.652;9.250;2024-01-15T20:13:48;-1.70;99.90
10010;DHT22;5044;48.652;9.250;2024-01-15T20:16:15;-1.50;99.90
10010;DHT22;5044;48.652;9.250;2024-01-15T20:18:45;-1.60;99.90
10010;DHT22;5044;48.652;9.250;2024-01-15T20:21:17;-1.60;99.90
10010;DHT22;5044;48.652;9.250;2024-01-15T20:23:44;-1.70;99.90
10010;DHT22;5044;48.652;9.250;2024-01-15T20:26:12;-1.30;99.90
10010;DHT22;5044;48.652;9.250;2024-01-15T20:28:41;-1.70;99.90
10010;DHT22;5044;48.652;9.250;2024-01-15T20:31:12;-1.60;99.90
10010;DHT22;5044;48.652;9.250;2024-01-15T20:33:39;-1.70;99.90
10010;DHT22;5044;48.652;9.250;2024-01-15T20:36:06;-0.90;99.90
10010;DHT22;5044;48.652;9.250;2024-01-15T20:38:35;-1.80;99.90
10010;DHT22;5044;48.652;9.250;2024-01-15T20:41:04;-1.80;99.90
10010;DHT22;5044;48.652;9.250;2024-01-15T20:43:31;-1.70;99.90
10010;DHT22;5044;48.652;9.250;2024-01-15T20:46:00;-1.80;99.90
10010;DHT22;5044;48.652;9.250;2024-01-15T20:48:27;-1.20;99.90
10010;DHT22;5044;48.652;9.250;2024-01-15T20:50:54;-1.80;99.90
10010;DHT22;5044;48.652;9.250;2024-01-15T20:53:23;-1.80;99.90
10010;DHT22;5044;48.652;9.250;2024-01-15T20:55:51;-1.60;99.90
10010;DHT22;5044;48.652;9.250;2024-01-15T20:58:21;-1.80;99.90
10010;DHT22;5044;48.652;9.250;2024-01-15T21:00:49;-1.10;99.90
10010;DHT22;5044;48.652;9.250;2024-01-15T21:03:16;-2.40;99.90
10010;DHT22;5044;48.652;9.250;2024-01-15T21:06:09;-1.90;99.90
